Flight Track Log - Related Links

Times and Time Zones

All times are in EDT time to prevent confusion due to time zone crossing. See the DAL6234 flight status page for this flight to view local times or setup timezone preferences in your user account.

Time Position Orientation Groundspeed Altitude Reporting Facility
EDT Latitude Longitude Course Direction KTS MPH feet Rate Location/Type
Sun 06:04:10 PM 43.1092 -76.0864 112° Southeast 161 185 1,300  Level Boston Center
Sun 06:05:12 PM 43.0903 -76.0228 112° Southeast 194 223 4,200 3,197 Climbing Boston Center
Sun 06:06:12 PM 43.0481 -75.9692 137° Southeast 210 242 7,800 3,250 Climbing Boston Center
Sun 06:07:12 PM 42.9958 -75.9036 137° Southeast 234 269 10,700 2,550 Climbing Boston Center
Sun 06:08:12 PM 42.9317 -75.8206 137° Southeast 276 318 12,900 2,150 Climbing Boston Center
Sun 06:09:12 PM 42.8611 -75.7375 139° Southeast 317 365 15,000 1,909 Climbing Boston Center
Sun 06:10:24 PM 42.7908 -75.6458 136° Southeast 340 391 17,100 1,955 Climbing Boston Center
Sun 06:11:24 PM 42.7000 -75.5339 138° Southeast 353 406 19,300 1,682 Climbing Boston Center
Sun 06:12:36 PM 42.6214 -75.4367 138° Southeast 368 423 20,800 773 Climbing Boston Center
Sun 06:13:36 PM 42.5186 -75.3050 137° Southeast 398 458 21,000 100 Climbing Boston Center
Sun 06:14:36 PM 42.4542 -75.2119 133° Southeast 414 476 21,000 -850 Level Boston Center
Sun 06:15:36 PM 42.3894 -75.0375 117° Southeast 429 494 19,300 -1,350 Descending Boston Center
Sun 06:16:36 PM 42.3364 -74.8864 115° Southeast 429 494 18,300 -700 Descending Boston Center
Sun 06:17:36 PM 42.2831 -74.7497 118° Southeast 429 494 17,900 -150 Descending Boston Center
Sun 06:18:36 PM 42.2317 -74.6047 116° Southeast 424 488 18,000 50 Climbing Boston Center
Sun 06:19:36 PM 42.1761 -74.4628 118° Southeast 424 488 18,000  Level Boston Center
Sun 06:20:36 PM 42.1244 -74.3183 116° Southeast 424 488 18,000  Level Boston Center
Sun 06:21:36 PM 42.0678 -74.1964 122° Southeast 424 488 18,000  Level Boston Center
Sun 06:22:36 PM 41.9967 -74.0769 129° Southeast 419 482 18,000 -300 Level Boston Center
Sun 06:23:36 PM 41.8767 -74.0183 160° South 405 466 17,400 -1,100 Descending Boston Center
Sun 06:24:36 PM 41.7814 -73.9797 163° South 410 472 15,800 -1,700 Descending Boston Center
Sun 06:25:36 PM 41.6819 -73.9383 163° South 376 433 14,000 -1,650 Descending Boston Center
Sun 06:26:36 PM 41.6092 -73.9089 163° South 312 359 12,500 -1,300 Descending Boston Center
Sun 06:27:36 PM 41.5264 -73.8764 164° South 290 334 11,400 -750 Descending Boston Center
Sun 06:28:36 PM 41.4897 -73.8036 124° Southeast 256 295 11,000 -200 Descending Boston Center
Sun 06:29:36 PM 41.5611 -73.7661 21° North 121 139 11,000  Level Boston Center
Sun 06:30:48 PM 41.5914 -73.8444 297° West 164 189 11,000  Level Boston Center
Sun 06:31:48 PM 41.5117 -73.8928 204° Southwest 222 255 11,000  Level Boston Center
Sun 06:32:48 PM 41.4492 -73.8858 175° South 239 275 11,000  Level Boston Center
Sun 06:33:48 PM 41.3925 -73.9231 206° Southwest 199 229 11,000  Level Boston Center
Sun 06:34:48 PM 41.4378 -73.9658 325° Northwest 100 115 11,000  Level Boston Center
Sun 06:35:49 PM 41.5150 -73.9539 North 163 188 11,000  Level Boston Center
Sun 06:36:48 PM 41.5778 -73.9219 21° North 225 259 11,000 -344 Level Boston Center
Sun 06:38:26 PM 41.5000 -73.8500 145° Southeast 283 326 10,100 -722 Descending New York TRACON
Sun 06:39:26 PM 41.4333 -73.8667 191° South 276 318 9,100 -800 Descending New York TRACON
Sun 06:40:26 PM 41.3667 -73.8167 151° Southeast 285 328 8,500 -550 Descending New York TRACON
Sun 06:41:26 PM 41.3000 -73.7667 151° Southeast 275 316 8,000 -250 Descending New York TRACON
Sun 06:42:26 PM 41.2333 -73.7000 143° Southeast 279 321 8,000 -400 Level New York TRACON
Sun 06:43:26 PM 41.1667 -73.6500 151° Southeast 281 323 7,200 -1,250 Descending New York TRACON
Sun 06:44:26 PM 41.1000 -73.6167 159° South 273 314 5,500 -1,550 Descending New York TRACON
Sun 06:45:26 PM 41.0500 -73.6500 207° Southwest 228 262 4,100 -750 Descending New York TRACON
Sun 06:46:26 PM 41.0000 -73.7000 217° Southwest 210 242 4,000 -48 Descending New York TRACON
Sun 06:47:32 PM 40.9500 -73.7333 207° Southwest 197 227 4,000  Level New York TRACON

Login

Don't have an account? Register now (free) for customized features, flight alerts, and more!